Time;durP1;ratioP1;P1;durP2;ratioP2;P2;SDS_P1;SDS_P2;PMS_P1;PMS_P2;Temp;Humidity;BMP_temperature;BMP_pressure;BME280_temperature;BME280_humidity;BME280_pressure;Samples;Min_cycle;Max_cycle;Signal;HPM_P1;HPM_P2
2021/01/30 00:02:02;;;;;;;1.83;0.80;;;10.40;99.90;;;;;;5083943;28;20020;-57
2021/01/30 00:04:28;;;;;;;3.17;1.25;;;10.50;99.90;;;;;;5084752;28;20028;-58
2021/01/30 00:06:53;;;;;;;2.20;0.95;;;10.60;99.90;;;;;;5083712;28;20473;-58
2021/01/30 00:09:22;;;;;;;3.17;1.25;;;10.80;99.90;;;;;;5098988;28;20039;-57
2021/01/30 00:11:50;;;;;;;4.07;1.70;;;10.80;99.90;;;;;;5104152;28;20441;-57
2021/01/30 00:14:28;;;;;;;3.90;1.90;;;10.80;99.90;;;;;;5092288;28;20094;-57
2021/01/30 00:16:54;;;;;;;3.92;1.88;;;11.00;99.90;;;;;;5083675;28;20106;-58
2021/01/30 00:19:20;;;;;;;7.05;2.08;;;11.10;99.90;;;;;;5084389;28;20127;-57
2021/01/30 00:21:54;;;;;;;3.03;1.85;;;11.20;99.90;;;;;;5084970;28;20024;-57
2021/01/30 00:24:21;;;;;;;3.47;1.88;;;11.00;99.90;;;;;;5084521;28;20492;-57
2021/01/30 00:26:55;;;;;;;4.15;1.67;;;11.00;99.90;;;;;;5083887;28;20027;-57
2021/01/30 00:29:22;;;;;;;5.43;1.40;;;11.00;99.90;;;;;;5084552;28;20035;-57
2021/01/30 00:31:48;;;;;;;3.72;1.38;;;10.50;99.90;;;;;;5084553;28;20016;-57
2021/01/30 00:34:15;;;;;;;4.00;1.77;;;10.50;99.90;;;;;;5084012;28;20544;-57
2021/01/30 00:36:41;;;;;;;3.65;1.42;;;10.50;99.90;;;;;;5086847;28;20024;-57
2021/01/30 00:39:07;;;;;;;3.63;1.27;;;10.50;99.90;;;;;;5088133;28;20509;-57
2021/01/30 00:41:33;;;;;;;2.80;1.13;;;10.30;99.90;;;;;;5088422;28;20024;-57
2021/01/30 00:43:59;;;;;;;3.20;0.98;;;9.90;99.90;;;;;;5088376;28;20502;-57
2021/01/30 00:46:26;;;;;;;2.45;1.15;;;9.90;99.90;;;;;;5088755;28;20020;-57
2021/01/30 00:48:52;;;;;;;3.85;1.20;;;10.10;99.90;;;;;;5087721;28;20178;-57
2021/01/30 00:51:19;;;;;;;5.75;1.42;;;10.20;99.90;;;;;;5088198;28;20589;-57
2021/01/30 00:53:44;;;;;;;4.45;1.42;;;10.30;99.90;;;;;;5087637;28;20028;-57
2021/01/30 00:56:13;;;;;;;5.32;1.60;;;10.00;99.90;;;;;;5087346;28;20026;-58
2021/01/30 00:58:41;;;;;;;5.78;2.15;;;9.90;99.90;;;;;;5087922;28;20020;-57
2021/01/30 01:01:06;;;;;;;5.95;2.13;;;9.80;99.90;;;;;;5087956;28;20478;-57
2021/01/30 01:03:32;;;;;;;10.23;2.38;;;9.90;99.90;;;;;;5087560;28;20074;-57
2021/01/30 01:05:59;;;;;;;5.20;1.65;;;9.90;99.90;;;;;;5087861;28;20028;-57
2021/01/30 01:08:25;;;;;;;4.82;1.30;;;9.90;99.90;;;;;;5088067;28;20028;-57
2021/01/30 01:10:51;;;;;;;5.97;1.40;;;9.90;99.90;;;;;;5087291;28;20040;-57
2021/01/30 01:13:17;;;;;;;1.88;1.13;;;9.90;99.90;;;;;;5087368;28;20118;-57
2021/01/30 01:15:43;;;;;;;5.38;1.70;;;10.00;99.90;;;;;;5087517;28;20030;-57
2021/01/30 01:18:08;;;;;;;4.03;1.27;;;10.00;99.90;;;;;;5086750;28;20055;-57
2021/01/30 01:20:34;;;;;;;2.85;1.23;;;10.00;99.90;;;;;;5087922;28;20028;-57
2021/01/30 01:23:00;;;;;;;3.33;1.25;;;9.70;99.90;;;;;;5087199;28;20020;-57
2021/01/30 01:25:26;;;;;;;5.05;1.67;;;9.70;99.90;;;;;;5087673;28;20410;-57
2021/01/30 01:27:52;;;;;;;2.67;1.20;;;9.80;99.90;;;;;;5087172;28;20028;-57
2021/01/30 01:30:20;;;;;;;4.40;1.30;;;9.90;99.90;;;;;;5087428;28;20052;-57
2021/01/30 01:32:46;;;;;;;5.18;1.58;;;9.80;99.90;;;;;;5087285;28;20541;-57
2021/01/30 01:35:20;;;;;;;4.32;1.65;;;9.70;99.90;;;;;;5086655;28;20497;-57
2021/01/30 01:37:46;;;;;;;5.43;1.58;;;9.40;99.90;;;;;;5087137;28;20576;-57
2021/01/30 01:40:14;;;;;;;4.93;1.65;;;9.80;99.90;;;;;;5086608;28;20103;-57
2021/01/30 01:42:41;;;;;;;3.72;1.63;;;9.90;99.90;;;;;;5087243;28;20062;-57
2021/01/30 01:45:07;;;;;;;6.07;2.03;;;9.70;99.90;;;;;;5086780;28;20040;-57
2021/01/30 01:47:46;;;;;;;4.95;1.52;;;9.60;99.90;;;;;;5085526;28;20112;-57
2021/01/30 01:50:37;;;;;;;4.95;1.98;;;9.50;99.90;;;;;;5086690;28;20195;-57
2021/01/30 01:53:10;;;;;;;5.20;1.80;;;9.50;99.90;;;;;;5086255;28;20074;-57
2021/01/30 01:55:42;;;;;;;5.13;1.60;;;9.50;99.90;;;;;;5086587;28;20111;-57
2021/01/30 01:58:08;;;;;;;6.93;1.58;;;9.50;99.90;;;;;;5086417;28;20020;-57
2021/01/30 02:00:33;;;;;;;3.88;1.60;;;9.60;99.90;;;;;;5086626;28;20024;-57
2021/01/30 02:03:00;;;;;;;6.05;1.33;;;9.60;99.90;;;;;;5086934;28;20089;-57
2021/01/30 02:05:33;;;;;;;3.17;1.45;;;9.70;99.90;;;;;;5087247;28;20024;-57
2021/01/30 02:08:16;;;;;;;3.58;1.50;;;9.70;99.90;;;;;;5086840;28;20020;-57
2021/01/30 02:10:45;;;;;;;4.30;1.60;;;9.70;99.90;;;;;;5086086;28;20131;-57
2021/01/30 02:13:39;;;;;;;5.93;1.85;;;9.70;99.90;;;;;;5086153;28;20024;-57
2021/01/30 02:16:48;;;;;;;6.38;1.48;;;9.70;99.90;;;;;;5085911;28;20035;-57
2021/01/30 02:19:38;;;;;;;5.60;1.80;;;9.70;99.90;;;;;;5063235;28;20024;-57
2021/01/30 02:22:28;;;;;;;6.35;1.50;;;9.60;99.90;;;;;;5062921;28;20040;-57
2021/01/30 02:25:15;;;;;;;4.20;1.40;;;9.50;99.90;;;;;;5081204;28;20105;-57
2021/01/30 02:27:55;;;;;;;2.55;1.10;;;9.50;99.90;;;;;;5086148;28;20827;-57
2021/01/30 02:30:51;;;;;;;4.57;1.50;;;9.60;99.90;;;;;;5086059;28;20036;-57
2021/01/30 02:33:40;;;;;;;6.70;1.63;;;9.50;99.90;;;;;;5085776;28;20441;-57
2021/01/30 02:36:33;;;;;;;4.63;1.88;;;9.30;99.90;;;;;;5085612;28;20080;-57
2021/01/30 02:39:17;;;;;;;6.57;1.80;;;9.30;99.90;;;;;;5086137;28;20124;-57
2021/01/30 02:42:10;;;;;;;6.70;1.90;;;9.30;99.90;;;;;;5085902;28;20029;-57
2021/01/30 02:44:43;;;;;;;3.05;1.40;;;9.10;99.90;;;;;;5082596;28;20403;-57
2021/01/30 02:47:12;;;;;;;3.40;1.33;;;9.20;99.90;;;;;;5085289;28;20112;-57
2021/01/30 02:49:43;;;;;;;4.03;1.23;;;9.20;99.90;;;;;;5085803;28;20031;-57
2021/01/30 02:52:19;;;;;;;6.53;2.33;;;9.20;99.90;;;;;;5084868;28;20028;-57
2021/01/30 02:54:46;;;;;;;11.52;4.55;;;9.20;99.90;;;;;;5085766;28;20034;-57
2021/01/30 02:57:14;;;;;;;9.18;3.45;;;9.10;99.90;;;;;;5085317;28;20119;-57
2021/01/30 02:59:46;;;;;;;11.45;3.92;;;9.10;99.90;;;;;;5085154;28;20114;-57
2021/01/30 03:02:12;;;;;;;9.45;3.17;;;9.10;99.90;;;;;;5085008;28;20448;-56
2021/01/30 03:04:38;;;;;;;10.15;3.13;;;9.00;99.90;;;;;;5085449;28;20028;-57
2021/01/30 03:07:29;;;;;;;9.20;2.97;;;9.10;99.90;;;;;;5084825;28;20072;-57
2021/01/30 03:10:08;;;;;;;7.05;2.55;;;9.00;99.90;;;;;;5085284;28;20040;-57
2021/01/30 03:13:00;;;;;;;7.60;2.92;;;8.80;99.90;;;;;;5085322;28;20130;-57
2021/01/30 03:15:59;;;;;;;5.35;2.08;;;8.60;99.90;;;;;;5086230;28;20486;-57
2021/01/30 03:18:34;;;;;;;5.60;2.28;;;8.60;99.90;;;;;;5081380;28;20032;-57
2021/01/30 03:21:03;;;;;;;7.30;2.80;;;8.70;99.90;;;;;;5084438;28;20031;-57
2021/01/30 03:23:30;;;;;;;5.53;1.83;;;8.80;99.90;;;;;;5085845;28;20103;-57
2021/01/30 03:26:00;;;;;;;5.32;1.77;;;8.90;99.90;;;;;;5085371;28;20048;-56
2021/01/30 03:28:26;;;;;;;4.65;1.75;;;9.00;99.90;;;;;;5085615;28;20051;-57
2021/01/30 03:30:52;;;;;;;3.45;1.35;;;9.00;99.90;;;;;;5085266;28;20031;-57
2021/01/30 03:33:17;;;;;;;3.20;1.35;;;9.00;99.90;;;;;;5084868;28;20023;-57
2021/01/30 03:35:43;;;;;;;6.50;1.67;;;9.00;99.90;;;;;;5084873;28;20028;-57
2021/01/30 03:38:09;;;;;;;4.57;1.42;;;9.10;99.90;;;;;;5084701;28;20405;-57
2021/01/30 03:40:36;;;;;;;3.80;1.30;;;9.00;99.90;;;;;;5085120;28;20028;-57
2021/01/30 03:43:03;;;;;;;4.78;2.10;;;9.00;99.90;;;;;;5084968;28;20028;-57
2021/01/30 03:45:30;;;;;;;3.78;1.35;;;9.00;99.90;;;;;;5085523;28;20566;-57
2021/01/30 03:47:55;;;;;;;4.75;1.55;;;9.00;99.90;;;;;;5084846;28;20032;-57
2021/01/30 03:50:23;;;;;;;3.17;1.30;;;9.10;99.90;;;;;;5084668;28;20451;-57
2021/01/30 03:52:49;;;;;;;3.75;1.15;;;8.70;99.90;;;;;;5084593;28;20028;-57
2021/01/30 03:55:15;;;;;;;4.40;1.25;;;8.90;99.90;;;;;;5084387;28;20111;-57
2021/01/30 03:57:41;;;;;;;2.33;0.98;;;8.90;99.90;;;;;;5084784;28;20032;-57
2021/01/30 04:00:10;;;;;;;3.10;1.17;;;8.90;99.90;;;;;;5084478;28;20065;-57
2021/01/30 04:02:35;;;;;;;5.05;1.52;;;8.80;99.90;;;;;;5084520;28;20501;-57
2021/01/30 04:05:04;;;;;;;2.83;0.90;;;8.70;99.90;;;;;;5084369;28;20038;-57
2021/01/30 04:07:29;;;;;;;2.95;1.17;;;8.80;99.90;;;;;;5085196;28;20043;-57
2021/01/30 04:09:55;;;;;;;4.47;1.02;;;8.80;99.90;;;;;;5084577;28;20024;-57
2021/01/30 04:12:22;;;;;;;5.90;1.30;;;8.70;99.90;;;;;;5088922;28;20494;-57
2021/01/30 04:14:48;;;;;;;4.60;1.00;;;8.90;99.90;;;;;;5088743;28;20118;-57
2021/01/30 04:17:13;;;;;;;1.60;0.82;;;8.80;99.90;;;;;;5087981;28;20124;-56
2021/01/30 04:19:39;;;;;;;2.53;1.00;;;9.00;99.90;;;;;;5088794;28;20047;-57
2021/01/30 04:22:06;;;;;;;5.65;0.98;;;9.00;99.90;;;;;;5088324;28;20028;-57
2021/01/30 04:24:32;;;;;;;3.83;0.90;;;8.90;99.90;;;;;;5088582;28;20384;-57
2021/01/30 04:26:58;;;;;;;1.25;0.70;;;9.00;99.90;;;;;;5089105;28;20016;-57
2021/01/30 04:29:24;;;;;;;4.75;1.25;;;9.00;99.90;;;;;;5088546;28;20081;-56
2021/01/30 04:31:57;;;;;;;4.35;1.10;;;9.00;99.90;;;;;;5088584;28;20448;-56
2021/01/30 04:34:23;;;;;;;5.40;1.53;;;8.90;99.90;;;;;;5088243;28;20446;-57
2021/01/30 04:36:49;;;;;;;5.32;1.52;;;8.70;99.90;;;;;;5088551;28;20046;-57
2021/01/30 04:39:15;;;;;;;4.85;2.20;;;8.70;99.90;;;;;;5087817;28;20016;-57
2021/01/30 04:41:59;;;;;;;7.45;2.80;;;8.60;99.90;;;;;;5088271;28;20402;-57
2021/01/30 04:44:57;;;;;;;6.18;3.03;;;8.70;99.90;;;;;;5088659;28;20107;-57
2021/01/30 04:48:08;;;;;;;5.88;2.00;;;8.70;99.90;;;;;;5087586;28;20039;-57
2021/01/30 04:50:50;;;;;;;5.65;2.20;;;9.00;99.90;;;;;;5077285;28;20109;-57
2021/01/30 04:53:45;;;;;;;6.70;1.55;;;9.10;99.90;;;;;;5087171;28;20447;-57
2021/01/30 04:56:35;;;;;;;3.22;1.30;;;9.10;99.90;;;;;;5087775;28;20024;-56
2021/01/30 04:59:23;;;;;;;3.67;1.67;;;9.30;99.90;;;;;;5087353;28;20027;-57
2021/01/30 05:01:55;;;;;;;2.88;1.40;;;9.30;99.90;;;;;;5087647;28;20043;-57
2021/01/30 05:04:33;;;;;;;3.85;1.30;;;9.40;99.90;;;;;;5087731;28;20068;-56
2021/01/30 05:07:07;;;;;;;2.88;1.50;;;9.20;99.90;;;;;;5088369;28;20016;-57
2021/01/30 05:09:48;;;;;;;3.58;1.35;;;9.10;99.90;;;;;;5087610;28;20099;-57
2021/01/30 05:12:36;;;;;;;6.63;1.48;;;9.00;99.90;;;;;;5087729;28;20115;-57
2021/01/30 05:15:14;;;;;;;4.50;1.20;;;9.20;99.90;;;;;;5087106;28;20065;-57
2021/01/30 05:17:56;;;;;;;2.20;1.17;;;9.20;99.90;;;;;;5087661;28;20047;-56
2021/01/30 05:20:22;;;;;;;3.55;1.23;;;9.30;99.90;;;;;;5087715;28;20056;-57
2021/01/30 05:22:49;;;;;;;2.33;1.00;;;9.40;99.90;;;;;;5087370;28;20089;-57
2021/01/30 05:25:21;;;;;;;3.13;1.00;;;9.50;99.90;;;;;;5087331;28;20624;-56
2021/01/30 05:27:52;;;;;;;2.55;1.05;;;9.40;99.90;;;;;;5087313;28;20024;-56
2021/01/30 05:30:30;;;;;;;8.75;2.17;;;9.50;99.90;;;;;;5087519;28;20032;-56
2021/01/30 05:33:01;;;;;;;5.90;1.85;;;9.30;99.90;;;;;;5087832;28;20020;-57
2021/01/30 05:35:33;;;;;;;7.60;2.33;;;9.20;99.90;;;;;;5087809;28;20493;-57
2021/01/30 05:38:14;;;;;;;6.07;1.75;;;9.10;99.90;;;;;;5087442;28;20020;-57
2021/01/30 05:40:51;;;;;;;6.80;1.98;;;8.70;99.90;;;;;;5087031;28;20040;-56
2021/01/30 05:43:21;;;;;;;3.22;1.27;;;8.60;99.90;;;;;;5086642;28;20040;-56
2021/01/30 05:45:53;;;;;;;2.97;1.40;;;8.60;99.90;;;;;;5087188;28;20208;-56
2021/01/30 05:48:35;;;;;;;8.45;1.73;;;8.70;99.90;;;;;;5087275;28;20482;-57
2021/01/30 05:51:25;;;;;;;5.20;1.88;;;8.90;99.90;;;;;;5086667;28;20068;-57
2021/01/30 05:53:51;;;;;;;5.53;1.70;;;8.80;99.90;;;;;;5086513;28;20077;-57
2021/01/30 05:56:17;;;;;;;2.95;1.63;;;8.70;99.90;;;;;;5086518;28;20444;-57
2021/01/30 05:58:45;;;;;;;6.53;1.80;;;8.50;99.90;;;;;;5086531;28;20434;-56
2021/01/30 06:01:23;;;;;;;5.55;1.80;;;8.30;99.90;;;;;;5086270;28;20453;-57
2021/01/30 06:03:58;;;;;;;4.45;1.50;;;8.40;99.90;;;;;;5086697;28;20104;-57
2021/01/30 06:06:30;;;;;;;3.83;1.50;;;8.50;99.90;;;;;;5086647;28;20038;-57
2021/01/30 06:09:42;;;;;;;3.75;1.40;;;8.50;99.90;;;;;;5086565;28;20027;-56
2021/01/30 06:12:25;;;;;;;4.93;1.63;;;8.30;99.90;;;;;;5086054;28;20042;-57
2021/01/30 06:14:53;;;;;;;5.03;1.40;;;8.30;99.90;;;;;;5086386;28;20047;-57
2021/01/30 06:17:21;;;;;;;5.50;1.50;;;8.20;99.90;;;;;;5086498;28;20030;-57
2021/01/30 06:20:12;;;;;;;4.70;1.23;;;8.30;99.90;;;;;;5087025;28;20024;-57
2021/01/30 06:22:38;;;;;;;4.57;1.08;;;8.30;99.90;;;;;;5086456;28;20020;-57
2021/01/30 06:25:22;;;;;;;4.72;1.50;;;8.40;99.90;;;;;;5085819;28;20031;-55
2021/01/30 06:27:49;;;;;;;4.15;1.50;;;8.60;99.90;;;;;;5086243;28;20028;-57
2021/01/30 06:30:37;;;;;;;3.63;1.50;;;8.60;99.90;;;;;;5085685;28;20024;-57
2021/01/30 06:33:22;;;;;;;4.70;1.50;;;8.40;99.90;;;;;;5085015;28;20024;-57
2021/01/30 06:35:51;;;;;;;4.22;1.85;;;8.30;99.90;;;;;;5086285;28;20024;-57
2021/01/30 06:38:22;;;;;;;3.63;1.80;;;8.50;99.90;;;;;;5085648;28;20016;-57
2021/01/30 06:40:59;;;;;;;4.53;1.70;;;8.40;99.90;;;;;;5086246;28;20367;-57
2021/01/30 06:43:35;;;;;;;4.57;1.58;;;8.30;99.90;;;;;;5086655;28;20077;-57
2021/01/30 06:46:07;;;;;;;4.40;1.42;;;8.40;99.90;;;;;;5085121;28;20077;-57
2021/01/30 06:48:34;;;;;;;5.20;1.23;;;8.50;99.90;;;;;;5085802;28;20533;-57
2021/01/30 06:51:00;;;;;;;3.83;1.40;;;8.50;99.90;;;;;;5085440;28;20144;-57
2021/01/30 06:53:29;;;;;;;1.70;0.85;;;8.60;99.90;;;;;;5085773;28;20051;-57
2021/01/30 06:55:55;;;;;;;4.85;1.30;;;8.60;99.90;;;;;;5085608;28;20055;-56
2021/01/30 06:58:27;;;;;;;5.93;1.63;;;8.30;99.90;;;;;;5085770;28;20093;-57
2021/01/30 07:01:13;;;;;;;4.18;1.55;;;8.20;99.90;;;;;;5085405;28;20107;-57
2021/01/30 07:03:58;;;;;;;4.63;1.20;;;8.10;99.90;;;;;;5085724;28;20528;-57
2021/01/30 07:06:31;;;;;;;4.05;1.33;;;8.20;99.90;;;;;;5089903;28;20032;-56
2021/01/30 07:09:05;;;;;;;5.03;1.60;;;8.20;99.90;;;;;;5102436;28;20031;-56
2021/01/30 07:11:39;;;;;;;2.22;1.00;;;8.30;99.90;;;;;;5104326;28;20047;-57
2021/01/30 07:14:32;;;;;;;3.35;1.25;;;8.50;99.90;;;;;;5086532;28;20034;-57
2021/01/30 07:17:05;;;;;;;4.38;1.30;;;8.50;99.90;;;;;;5067390;28;20468;-57
2021/01/30 07:19:45;;;;;;;3.95;1.65;;;8.50;99.90;;;;;;5087207;28;20110;-57
2021/01/30 07:22:18;;;;;;;5.95;1.95;;;8.30;99.90;;;;;;5088921;27;20020;-57
2021/01/30 07:25:18;;;;;;;4.50;1.52;;;8.30;99.90;;;;;;5115659;27;20032;-57
2021/01/30 07:28:07;;;;;;;5.40;1.15;;;8.30;99.90;;;;;;5106990;28;20130;-57
2021/01/30 07:30:49;;;;;;;3.10;1.50;;;8.30;99.90;;;;;;5104983;28;20067;-57
2021/01/30 07:33:23;;;;;;;6.97;1.80;;;8.20;99.90;;;;;;5097553;28;20017;-57
2021/01/30 07:36:08;;;;;;;4.82;1.55;;;8.10;99.90;;;;;;5085952;28;20060;-57
2021/01/30 07:38:44;;;;;;;4.65;1.55;;;8.20;99.90;;;;;;5086310;28;20024;-57
2021/01/30 07:41:37;;;;;;;2.38;1.10;;;8.30;99.90;;;;;;5090434;28;20131;-57
2021/01/30 07:44:11;;;;;;;3.58;1.38;;;8.20;99.90;;;;;;5091480;28;20085;-57
2021/01/30 07:46:42;;;;;;;4.18;1.42;;;8.30;99.90;;;;;;5085641;28;20043;-57
2021/01/30 07:49:22;;;;;;;4.80;1.52;;;8.40;99.90;;;;;;5086261;28;20039;-57
2021/01/30 07:52:06;;;;;;;3.90;1.60;;;8.40;99.90;;;;;;5086120;28;20082;-57
2021/01/30 07:54:34;;;;;;;4.72;1.75;;;8.40;99.90;;;;;;5095256;28;20050;-57
2021/01/30 07:57:30;;;;;;;8.43;2.25;;;8.40;99.90;;;;;;5106124;28;20584;-57
2021/01/30 08:00:03;;;;;;;3.97;1.63;;;8.40;99.90;;;;;;5066215;28;20032;-57
2021/01/30 08:02:59;;;;;;;4.00;1.80;;;8.50;99.90;;;;;;5090284;28;20506;-57
2021/01/30 08:05:46;;;;;;;4.38;1.55;;;8.50;99.90;;;;;;5091992;28;20025;-57
2021/01/30 08:08:45;;;;;;;3.67;1.58;;;8.40;99.90;;;;;;5089234;28;20031;-57
2021/01/30 08:11:28;;;;;;;3.22;1.35;;;8.40;99.90;;;;;;5091894;28;20048;-57
2021/01/30 08:14:19;;;;;;;3.83;1.13;;;8.50;99.90;;;;;;5087413;28;20511;-57
2021/01/30 08:17:08;;;;;;;3.28;1.40;;;8.60;99.90;;;;;;5089966;28;20439;-57
2021/01/30 08:19:53;;;;;;;3.50;1.50;;;8.50;99.90;;;;;;5090773;28;20019;-58
2021/01/30 08:22:30;;;;;;;3.60;1.90;;;8.70;99.90;;;;;;5087346;28;21599;-58
2021/01/30 08:25:12;;;;;;;4.50;1.70;;;8.70;99.90;;;;;;5098516;28;20096;-58
2021/01/30 08:27:47;;;;;;;5.95;2.22;;;8.70;99.90;;;;;;5086199;28;20490;-58
2021/01/30 08:30:23;;;;;;;6.30;2.33;;;8.70;99.90;;;;;;5091810;28;20157;-58
2021/01/30 08:33:09;;;;;;;10.10;4.07;;;8.60;99.90;;;;;;5106698;28;20023;-58
2021/01/30 08:35:44;;;;;;;12.10;5.07;;;8.50;99.90;;;;;;5106450;28;20034;-58
2021/01/30 08:38:16;;;;;;;10.68;5.18;;;8.60;99.90;;;;;;5095774;28;20421;-55
2021/01/30 08:40:51;;;;;;;10.48;4.25;;;8.30;99.90;;;;;;5087441;28;20023;-55
2021/01/30 08:43:22;;;;;;;8.35;3.78;;;8.50;99.90;;;;;;5086864;28;20009;-55
2021/01/30 08:45:48;;;;;;;8.63;3.42;;;8.50;99.90;;;;;;5085949;28;20063;-56
2021/01/30 08:48:16;;;;;;;8.40;2.90;;;8.40;99.90;;;;;;5089659;28;20069;-56
2021/01/30 08:50:48;;;;;;;6.45;2.60;;;8.40;99.90;;;;;;5105583;28;20031;-56
2021/01/30 08:53:23;;;;;;;4.32;2.15;;;8.60;99.90;;;;;;5103924;28;20024;-58
2021/01/30 08:55:54;;;;;;;7.25;2.50;;;8.70;99.90;;;;;;5105307;28;20451;-58
2021/01/30 08:58:37;;;;;;;6.60;2.90;;;8.70;99.90;;;;;;5108867;28;20522;-58
2021/01/30 09:01:06;;;;;;;5.35;2.42;;;8.80;99.90;;;;;;5108984;28;20055;-58
2021/01/30 09:03:48;;;;;;;5.82;2.13;;;8.90;99.90;;;;;;5109121;28;20024;-58
2021/01/30 09:06:38;;;;;;;4.63;1.75;;;8.90;99.90;;;;;;5109079;28;20031;-58
2021/01/30 09:09:17;;;;;;;4.30;1.55;;;8.90;99.90;;;;;;5107899;28;20099;-55
2021/01/30 09:11:44;;;;;;;4.35;1.90;;;8.90;99.90;;;;;;5092450;28;20047;-55
2021/01/30 09:14:18;;;;;;;3.47;1.50;;;8.80;99.90;;;;;;5088251;28;20034;-55
2021/01/30 09:16:56;;;;;;;5.07;1.83;;;8.80;99.90;;;;;;5088338;28;20024;-56
2021/01/30 09:19:55;;;;;;;4.97;1.70;;;8.80;99.90;;;;;;5098194;28;20020;-55
2021/01/30 09:22:26;;;;;;;6.35;1.92;;;9.00;99.90;;;;;;5108387;28;20081;-56
2021/01/30 09:25:10;;;;;;;5.15;1.55;;;9.10;99.90;;;;;;5108480;28;20024;-57
2021/01/30 09:27:57;;;;;;;4.47;1.70;;;9.10;99.90;;;;;;5099203;28;20442;-57
2021/01/30 09:30:50;;;;;;;5.38;2.05;;;9.00;99.90;;;;;;5107892;28;20115;-56
2021/01/30 09:33:38;;;;;;;6.25;1.70;;;9.00;99.90;;;;;;5108467;28;20027;-56
2021/01/30 09:36:23;;;;;;;5.38;1.77;;;9.10;99.90;;;;;;5108067;28;20045;-57
2021/01/30 09:38:51;;;;;;;3.58;1.30;;;9.10;99.90;;;;;;5108061;28;20394;-56
2021/01/30 09:41:24;;;;;;;3.97;1.25;;;9.10;99.90;;;;;;5108208;27;20066;-56
2021/01/30 09:44:03;;;;;;;4.03;1.50;;;9.20;99.90;;;;;;5102205;28;20088;-56
2021/01/30 09:46:33;;;;;;;1.60;1.08;;;9.20;99.90;;;;;;5088473;28;20028;-56
2021/01/30 09:49:07;;;;;;;4.43;1.42;;;9.20;99.90;;;;;;5094264;28;20020;-56
2021/01/30 09:51:37;;;;;;;4.60;1.33;;;9.20;99.90;;;;;;5088231;28;20501;-56
2021/01/30 09:54:03;;;;;;;4.20;1.67;;;9.20;99.90;;;;;;5099875;28;20092;-56
2021/01/30 09:56:36;;;;;;;5.63;1.60;;;9.20;99.90;;;;;;5089303;28;20514;-56
2021/01/30 09:59:03;;;;;;;3.80;1.80;;;9.20;99.90;;;;;;5084801;28;20027;-56
2021/01/30 10:01:37;;;;;;;3.85;1.63;;;9.10;99.90;;;;;;5087262;28;20020;-56
2021/01/30 10:04:22;;;;;;;5.22;2.13;;;9.20;99.90;;;;;;5086445;28;20143;-56
2021/01/30 10:06:49;;;;;;;5.63;2.20;;;9.30;99.90;;;;;;5086633;28;20577;-56
2021/01/30 10:09:19;;;;;;;4.63;1.95;;;9.20;99.90;;;;;;5087292;28;20039;-55
2021/01/30 10:11:49;;;;;;;4.95;2.20;;;9.00;99.90;;;;;;5091294;28;20032;-55
2021/01/30 10:14:19;;;;;;;5.75;2.53;;;9.00;99.90;;;;;;5090926;28;20478;-56
2021/01/30 10:17:01;;;;;;;4.53;1.88;;;9.00;99.90;;;;;;5096990;28;20382;-57
2021/01/30 10:19:30;;;;;;;3.25;1.40;;;9.10;99.90;;;;;;5108803;28;20041;-57
2021/01/30 10:21:56;;;;;;;4.93;2.05;;;9.00;99.90;;;;;;5108249;28;20023;-57
2021/01/30 10:24:28;;;;;;;3.05;1.70;;;9.20;99.90;;;;;;5106965;28;20019;-56
2021/01/30 10:27:15;;;;;;;3.05;1.80;;;9.20;99.90;;;;;;5106540;28;20028;-55
2021/01/30 10:29:41;;;;;;;3.90;2.13;;;9.20;99.90;;;;;;5098452;27;20088;-55
2021/01/30 10:32:17;;;;;;;3.00;1.73;;;9.20;99.90;;;;;;5106296;28;20585;-56
2021/01/30 10:35:05;;;;;;;3.60;1.88;;;9.20;99.90;;;;;;5106284;28;20413;-55
2021/01/30 10:37:59;;;;;;;4.32;2.00;;;9.20;99.90;;;;;;5106024;28;20508;-56
2021/01/30 10:40:49;;;;;;;4.95;1.98;;;9.10;99.90;;;;;;5105776;28;20020;-56
2021/01/30 10:43:21;;;;;;;8.63;3.67;;;9.00;99.90;;;;;;5101549;28;20027;-56
2021/01/30 10:45:54;;;;;;;11.77;5.40;;;9.10;99.90;;;;;;5102623;28;20028;-55
2021/01/30 10:48:23;;;;;;;9.55;5.05;;;9.00;99.90;;;;;;5089759;28;20047;-56
2021/01/30 10:50:50;;;;;;;9.93;3.58;;;8.90;99.90;;;;;;5105047;27;20031;-56
2021/01/30 10:53:28;;;;;;;7.10;2.58;;;8.70;99.90;;;;;;5106285;28;20024;-55
2021/01/30 10:55:54;;;;;;;6.25;2.00;;;8.40;99.90;;;;;;5096621;28;20028;-55
2021/01/30 10:58:30;;;;;;;4.22;1.50;;;8.30;99.90;;;;;;5093160;28;20042;-55
2021/01/30 11:01:32;;;;;;;4.05;1.40;;;8.30;99.90;;;;;;5095970;28;20424;-55
2021/01/30 11:04:02;;;;;;;4.18;1.17;;;8.20;99.90;;;;;;5055909;28;20028;-56
2021/01/30 11:06:45;;;;;;;3.40;1.50;;;8.30;99.90;;;;;;5079342;28;20040;-56
2021/01/30 11:09:25;;;;;;;3.13;1.45;;;8.40;99.90;;;;;;5103117;28;20032;-56
2021/01/30 11:12:14;;;;;;;6.45;1.90;;;8.50;99.90;;;;;;5105312;28;20039;-56
2021/01/30 11:14:40;;;;;;;3.15;2.30;;;8.60;99.90;;;;;;5100530;28;20036;-56
2021/01/30 11:17:18;;;;;;;2.80;1.90;;;8.60;99.90;;;;;;5093033;28;20020;-56
2021/01/30 11:19:43;;;;;;;3.13;1.30;;;8.70;99.90;;;;;;5095306;28;20591;-57
2021/01/30 11:22:17;;;;;;;3.33;1.50;;;8.70;99.90;;;;;;5097112;28;20020;-57
2021/01/30 11:25:08;;;;;;;4.60;1.65;;;8.80;99.90;;;;;;5091268;28;20108;-57
2021/01/30 11:27:33;;;;;;;2.97;1.30;;;8.80;99.90;;;;;;5103997;28;20059;-57
2021/01/30 11:30:25;;;;;;;2.90;1.20;;;8.90;99.90;;;;;;5096443;28;20539;-57
2021/01/30 11:32:52;;;;;;;5.72;1.85;;;8.90;99.90;;;;;;5085924;28;20051;-56
2021/01/30 11:35:28;;;;;;;3.83;1.60;;;9.00;99.90;;;;;;5089095;28;20036;-56
2021/01/30 11:37:58;;;;;;;3.65;1.50;;;8.90;99.90;;;;;;5085515;28;20024;-56
2021/01/30 11:40:24;;;;;;;3.40;1.50;;;8.80;99.90;;;;;;5100266;28;20423;-57
2021/01/30 11:42:49;;;;;;;3.05;1.30;;;8.90;99.90;;;;;;5106963;28;20038;-56
2021/01/30 11:45:16;;;;;;;5.15;2.00;;;8.90;99.90;;;;;;5106840;28;20446;-57
2021/01/30 11:47:41;;;;;;;3.88;1.60;;;9.00;99.90;;;;;;5107095;28;20039;-57
2021/01/30 11:50:08;;;;;;;3.28;1.15;;;9.10;99.90;;;;;;5104905;28;20055;-57
2021/01/30 11:52:34;;;;;;;3.60;1.33;;;9.20;99.90;;;;;;5102086;28;20389;-57
2021/01/30 11:55:03;;;;;;;3.95;1.17;;;9.20;99.90;;;;;;5097594;28;20028;-57
2021/01/30 11:57:29;;;;;;;2.20;1.20;;;9.20;99.90;;;;;;5087885;28;20043;-57
2021/01/30 11:59:55;;;;;;;3.67;1.38;;;9.10;99.90;;;;;;5097745;28;20024;-57
2021/01/30 12:02:30;;;;;;;3.13;1.27;;;9.20;99.90;;;;;;5091415;28;20024;-57
2021/01/30 12:04:56;;;;;;;2.22;1.15;;;9.20;99.90;;;;;;5098244;28;20024;-57
2021/01/30 12:07:22;;;;;;;2.88;1.20;;;9.20;99.90;;;;;;5085900;28;20034;-57
2021/01/30 12:09:48;;;;;;;2.40;1.02;;;9.10;99.90;;;;;;5089075;28;20016;-58
2021/01/30 12:12:14;;;;;;;3.50;1.30;;;9.00;99.90;;;;;;5106316;28;20039;-57
2021/01/30 12:14:39;;;;;;;3.00;1.52;;;9.10;99.90;;;;;;5100839;28;20113;-57
2021/01/30 12:17:05;;;;;;;2.90;1.50;;;9.20;99.90;;;;;;5086140;28;20169;-58
2021/01/30 12:19:31;;;;;;;4.78;1.77;;;9.10;99.90;;;;;;5093940;28;20028;-58
2021/01/30 12:21:56;;;;;;;5.15;2.10;;;9.10;99.90;;;;;;5106825;28;20389;-57
2021/01/30 12:24:23;;;;;;;4.88;2.20;;;9.10;99.90;;;;;;5102564;28;20035;-57
2021/01/30 12:26:50;;;;;;;5.90;2.85;;;9.20;99.90;;;;;;5106476;28;20077;-57
2021/01/30 12:29:15;;;;;;;4.55;2.83;;;9.20;99.90;;;;;;5103942;28;20113;-57
2021/01/30 12:31:41;;;;;;;5.35;2.78;;;9.20;99.90;;;;;;5087209;28;20106;-57
2021/01/30 12:34:07;;;;;;;4.65;2.50;;;9.00;99.90;;;;;;5093023;28;20055;-57
2021/01/30 12:36:32;;;;;;;5.20;2.53;;;9.00;99.90;;;;;;5099103;28;20020;-58
2021/01/30 12:38:58;;;;;;;5.80;2.88;;;9.10;99.90;;;;;;5093099;28;20817;-58
2021/01/30 12:41:24;;;;;;;5.95;2.15;;;9.10;99.90;;;;;;5106608;28;20112;-57
2021/01/30 12:43:49;;;;;;;5.28;2.10;;;9.10;99.90;;;;;;5110200;28;20040;-58
2021/01/30 12:46:16;;;;;;;3.58;1.80;;;9.20;99.90;;;;;;5110059;28;20031;-58
2021/01/30 12:48:42;;;;;;;4.70;1.70;;;9.10;99.90;;;;;;5109901;28;20073;-58
2021/01/30 12:51:07;;;;;;;2.40;1.40;;;9.00;99.90;;;;;;5109467;28;20501;-58
2021/01/30 12:53:33;;;;;;;3.67;1.65;;;9.00;99.90;;;;;;5109581;28;20059;-58
2021/01/30 12:55:59;;;;;;;2.28;1.75;;;9.10;99.90;;;;;;5094758;28;20032;-58
2021/01/30 12:58:28;;;;;;;4.63;1.73;;;9.10;99.90;;;;;;5090120;28;20059;-58
2021/01/30 13:00:55;;;;;;;4.03;1.58;;;9.00;99.90;;;;;;5098539;28;20020;-58
2021/01/30 13:03:23;;;;;;;5.03;1.75;;;9.10;99.90;;;;;;5105741;28;20027;-58
2021/01/30 13:05:50;;;;;;;3.28;1.40;;;9.10;99.90;;;;;;5091704;28;20055;-58
2021/01/30 13:08:17;;;;;;;3.08;1.40;;;9.20;99.90;;;;;;5097162;28;20063;-58
2021/01/30 13:10:43;;;;;;;3.88;1.55;;;9.10;99.90;;;;;;5104252;28;20051;-58
2021/01/30 13:13:10;;;;;;;2.92;1.42;;;9.00;99.90;;;;;;5092409;28;20031;-58
2021/01/30 13:15:35;;;;;;;2.47;1.50;;;9.00;99.90;;;;;;5099433;28;20031;-58
2021/01/30 13:18:02;;;;;;;3.53;1.50;;;9.00;99.90;;;;;;5109174;27;20030;-58
2021/01/30 13:20:28;;;;;;;5.03;2.28;;;9.00;99.90;;;;;;5090552;28;20111;-58
2021/01/30 13:22:55;;;;;;;4.03;1.75;;;9.00;99.90;;;;;;5088766;28;20039;-59
2021/01/30 13:25:21;;;;;;;3.88;1.30;;;9.10;99.90;;;;;;5089048;28;20599;-58
2021/01/30 13:27:47;;;;;;;3.90;1.65;;;9.10;99.90;;;;;;5089615;28;20044;-58
2021/01/30 13:30:16;;;;;;;3.95;1.48;;;9.00;99.90;;;;;;5088696;28;21013;-58